INFORMACIÓN METAR y TAF
METAR FOR LEST
ADDS - METARS form results

(1119 UTC 26 May 2022)
Data provider http://aviationweather.gov/metar/data/
 
METAR text: LEST 261100Z 02007KT 340V070 CAVOK 20/13 Q1026 NOSIG
Conditions at: LEST (SANTIAGO/LABACOL, ES) observed 1100 UTC 26 May 2022
Temperature: 20.0°C (68°F)
Dewpoint: 13.0°C (55°F) [RH = 64%]
Pressure (altimeter): 30.30 inches Hg (1026.0 mb)
Winds: from the NNE (20 degrees) at 8 MPH (7 knots; 3.6 m/s)
Visibility: 6 or more miles (10+ km)
Ceiling: ceiling and visibility are OK
Clouds: unknown
Weather: no significant weather observed at this time

METAR text: LEST 261030Z VRB04KT CAVOK 19/12 Q1027 NOSIG
Conditions at: LEST (SANTIAGO/LABACOL, ES) observed 1030 UTC 26 May 2022
Temperature: 19.0°C (66°F)
Dewpoint: 12.0°C (54°F) [RH = 64%]
Pressure (altimeter): 30.32 inches Hg (1027.0 mb)
Winds: variable direction winds at 5 MPH (4 knots; 2.1 m/s)
Visibility: 6 or more miles (10+ km)
Ceiling: ceiling and visibility are OK
Clouds: unknown
Weather: no significant weather observed at this time

Forecast for: LEST (SANTIAGO/LABACOL, ES)
Text: TAF LEST 260500Z 2606/2706 03007KT 9999 FEW015 TX25/2615Z TN08/2606Z
Forecast period: 0600 UTC 26 May 2022 to 0600 UTC 27 May 2022
Forecast type: FROM: standard forecast or significant change
Winds: from the NNE (30 degrees) at 8 MPH (7 knots; 3.6 m/s)
Visibility: 6 or more miles (10+ km)
Ceiling: at least 12,000 feet AGL
Clouds: few clouds at 1500 feet AGL
Weather: no significant weather forecast for this period
Text: PROB30
Forecast period: 0600 to 0800 UTC 26 May 2022
Forecast type: TEMPORARY: The following changes expected for less than half the time period
Visibility: 1.86 miles (2.99 km)
Ceiling: unknown
Clouds: missing
Weather: BR BCFG  (mist, patches of fog)
Text: TEMPO 2606/2608 3000 BR BCFG
Forecast period: 0600 to 0700 UTC 26 May 2022
Forecast type: TEMPORARY: The following changes expected for less than half the time period
Visibility: 0.93 miles (1.50 km)
Ceiling: unknown
Clouds: missing
Weather: BCFG  (patches of fog)

 MAPA DE AEROPUERTO

Add a default marker
 INFORMACIÓN DE PISTA
Pista 17 Longitud 10499 ft Ancho 148 ft
Elevación 1170 ft Umbral desplazado 394 ft Rumbo de pista 166
Pista 35 Longitud 10499 ft Ancho 148 ft
Elevación 1196 ft Umbral desplazado 0 ft Rumbo de pista 346

 FRECUANCIAS DEL AEROPUERTO
Tipo APP Nombre APP Frecuencia 118.2 MHZ
Tipo GND Nombre GND Frecuencia 121.7 MHZ
Tipo TWR Nombre TWR Frecuencia 118.75 MHZ

 RADIO AYUDAS DEL AEROPUERTO
Tipo NDB Nombre Santiago Frecuencia 417 KHZ
Tipo VOR-DME Nombre Santiago Frecuencia 116400 KHZ



Powered by Virtual Airlines Manager [v2.6.2]